Time;durP1;ratioP1;P1;durP2;ratioP2;P2;SDS_P1;SDS_P2;PMS_P1;PMS_P2;Temp;Humidity;BMP_temperature;BMP_pressure;BME280_temperature;BME280_humidity;BME280_pressure;Samples;Min_cycle;Max_cycle;Signal;HPM_P1;HPM_P2
2023/05/13 00:04:29;;;;;;;6.53;2.40;;;;;;;19.99;45.57;101909.94;16121359;19;131618;-42
2023/05/13 00:09:51;;;;;;;3.45;2.45;;;;;;;19.99;45.58;101914.63;16124318;19;131110;-41
2023/05/13 00:15:13;;;;;;;5.93;2.78;;;;;;;19.98;45.37;101908.22;16111886;19;131659;-39
2023/05/13 00:20:35;;;;;;;6.07;2.88;;;;;;;19.98;45.41;101912.94;16115360;19;130900;-40
2023/05/13 00:25:58;;;;;;;6.07;2.88;;;;;;;19.97;45.62;101914.84;16119130;19;130911;-39
2023/05/13 00:31:23;;;;;;;4.85;2.70;;;;;;;19.97;45.37;101919.56;16117818;19;129375;-39
2023/05/13 00:36:45;;;;;;;5.32;3.17;;;;;;;19.97;45.81;101916.78;16118549;19;129792;-40
2023/05/13 00:42:11;;;;;;;4.40;2.83;;;;;;;19.96;45.36;101917.88;16115118;19;130644;-40
2023/05/13 00:47:32;;;;;;;3.22;2.90;;;;;;;19.94;45.48;101917.25;16115775;19;130392;-41
2023/05/13 00:52:56;;;;;;;4.70;3.17;;;;;;;19.94;45.60;101918.06;16113725;19;130701;-39
2023/05/13 00:58:18;;;;;;;3.88;2.75;;;;;;;19.92;45.53;101914.72;16112914;19;130577;-39
2023/05/13 01:03:52;;;;;;;3.92;3.20;;;;;;;19.91;45.34;101910.22;16115229;19;130462;-39
2023/05/13 01:09:30;;;;;;;4.78;3.33;;;;;;;19.89;45.12;101915.16;16114669;19;130640;-39
2023/05/13 01:15:02;;;;;;;4.97;2.88;;;;;;;19.88;45.33;101902.34;16113297;19;130135;-39
2023/05/13 01:20:26;;;;;;;5.47;3.00;;;;;;;19.87;45.13;101903.44;16115930;19;130241;-40
2023/05/13 01:25:49;;;;;;;4.65;3.15;;;;;;;19.86;45.45;101906.44;16111339;19;129804;-42
2023/05/13 01:31:12;;;;;;;4.47;2.80;;;;;;;19.85;45.19;101908.38;16110539;19;130885;-40
2023/05/13 01:36:35;;;;;;;3.67;3.10;;;;;;;19.84;45.31;101906.66;16112854;19;129585;-40
2023/05/13 01:41:57;;;;;;;2.92;2.63;;;;;;;19.82;45.21;101917.16;16113704;19;129208;-40
2023/05/13 01:47:19;;;;;;;4.57;3.28;;;;;;;19.81;44.90;101909.94;16103700;19;131303;-40
2023/05/13 01:52:41;;;;;;;4.57;3.25;;;;;;;19.80;44.85;101913.78;16110556;19;131165;-40
2023/05/13 01:58:03;;;;;;;6.65;3.55;;;;;;;19.79;44.61;101909.31;16111296;19;130747;-40
2023/05/13 02:03:25;;;;;;;6.88;3.22;;;;;;;19.78;44.98;101915.94;16113104;19;130435;-39
2023/05/13 02:08:50;;;;;;;4.38;3.05;;;;;;;19.77;44.84;101917.00;16110821;19;130554;-39
2023/05/13 02:14:12;;;;;;;4.50;3.28;;;;;;;19.75;44.94;101913.59;16106972;19;131355;-39
2023/05/13 02:19:33;;;;;;;5.13;3.45;;;;;;;19.75;44.58;101913.59;16110234;19;129701;-40
2023/05/13 02:24:55;;;;;;;4.53;3.15;;;;;;;19.73;44.35;101911.06;16099602;19;130282;-39
2023/05/13 02:30:17;;;;;;;3.65;3.33;;;;;;;19.73;44.47;101913.84;16109355;19;130873;-40
2023/05/13 02:35:39;;;;;;;4.18;3.60;;;;;;;19.71;44.60;101917.91;16110476;19;132351;-40
2023/05/13 02:41:01;;;;;;;5.82;3.42;;;;;;;19.70;44.15;101917.06;16109870;19;129794;-39
2023/05/13 02:46:23;;;;;;;5.35;3.28;;;;;;;19.71;44.17;101917.91;16102170;19;130442;-39
2023/05/13 02:51:45;;;;;;;4.70;3.25;;;;;;;19.68;44.16;101914.53;16106853;19;131056;-39
2023/05/13 02:57:06;;;;;;;6.50;3.20;;;;;;;19.68;44.40;101908.13;16101571;19;129411;-39
2023/05/13 03:02:28;;;;;;;5.57;3.55;;;;;;;19.67;43.98;101910.06;16104161;19;129165;-41
2023/05/13 03:07:50;;;;;;;5.80;3.72;;;;;;;19.67;44.06;101915.63;16115608;19;131080;-39
2023/05/13 03:13:12;;;;;;;5.13;3.25;;;;;;;19.64;44.30;101913.28;16116537;19;129560;-39
2023/05/13 03:18:35;;;;;;;4.72;3.25;;;;;;;19.64;44.17;101916.06;16120313;19;131261;-41
2023/05/13 03:23:57;;;;;;;5.82;3.08;;;;;;;19.63;44.00;101922.69;16118009;19;130761;-40
2023/05/13 03:29:19;;;;;;;4.65;2.92;;;;;;;19.63;44.14;101922.69;16121249;19;130343;-39
2023/05/13 03:34:41;;;;;;;4.25;3.03;;;;;;;19.62;44.07;101915.44;16123706;19;130115;-40
2023/05/13 03:40:03;;;;;;;3.83;3.28;;;;;;;19.64;44.27;101923.53;16119588;19;129579;-40
2023/05/13 03:45:25;;;;;;;4.35;3.00;;;;;;;19.63;43.98;101922.69;16116973;19;134013;-41
2023/05/13 03:50:47;;;;;;;5.50;3.08;;;;;;;19.62;43.81;101925.72;16118248;19;130337;-39
2023/05/13 03:56:09;;;;;;;3.60;3.22;;;;;;;19.61;44.13;101924.00;16122111;19;130477;-40
2023/05/13 04:01:31;;;;;;;5.05;3.00;;;;;;;19.60;43.88;101930.63;16121233;19;130598;-40
2023/05/13 04:06:53;;;;;;;3.28;2.97;;;;;;;19.59;44.03;101921.44;16118879;19;130647;-39
2023/05/13 04:12:17;;;;;;;6.78;3.13;;;;;;;19.58;43.92;101930.84;16110108;19;130629;-43
2023/05/13 04:17:38;;;;;;;3.58;2.67;;;;;;;19.58;43.77;101930.00;16109565;19;130637;-43
2023/05/13 04:23:00;;;;;;;10.07;3.17;;;;;;;19.62;44.21;101937.66;16111818;19;130431;-45
2023/05/13 04:28:22;;;;;;;8.32;3.13;;;;;;;19.65;44.17;101936.34;16109052;19;130067;-40
2023/05/13 04:33:44;;;;;;;14.30;3.75;;;;;;;19.69;43.85;101941.19;16117871;19;129576;-40
2023/05/13 04:39:06;;;;;;;20.33;3.72;;;;;;;19.71;43.90;101943.75;16115355;19;129975;-43
2023/05/13 04:44:28;;;;;;;36.08;5.10;;;;;;;19.77;43.49;101956.72;16118274;19;131644;-40
2023/05/13 04:49:50;;;;;;;26.58;5.07;;;;;;;19.80;43.52;101956.25;16110999;19;130958;-41
2023/05/13 04:55:12;;;;;;;26.25;5.20;;;;;;;19.82;43.11;101962.44;16120101;19;130955;-40
2023/05/13 05:00:34;;;;;;;17.23;4.43;;;;;;;19.82;43.17;101964.34;16114602;19;130648;-40
2023/05/13 05:05:56;;;;;;;17.50;4.85;;;;;;;19.80;43.07;101963.75;16106471;19;131683;-39
2023/05/13 05:11:18;;;;;;;12.85;5.20;;;;;;;19.78;43.11;101968.69;16110445;19;130798;-40
2023/05/13 05:16:40;;;;;;;14.15;4.50;;;;;;;19.77;43.20;101969.75;16114260;19;129757;-39
2023/05/13 05:22:01;;;;;;;12.98;4.35;;;;;;;19.75;42.67;101981.09;16111023;19;130188;-39
2023/05/13 05:27:23;;;;;;;13.40;4.38;;;;;;;19.76;42.86;101981.94;16112501;19;130170;-39
2023/05/13 05:32:45;;;;;;;8.55;3.60;;;;;;;19.81;42.56;101987.69;16109949;19;130716;-40
2023/05/13 05:38:10;;;;;;;11.75;4.38;;;;;;;19.86;42.51;101989.75;16112667;19;129905;-39
2023/05/13 05:43:32;;;;;;;9.77;3.70;;;;;;;19.93;42.53;101994.19;16109884;19;130820;-41
2023/05/13 05:48:54;;;;;;;5.63;3.90;;;;;;;20.05;42.46;101997.06;16111510;19;129552;-40
2023/05/13 05:54:15;;;;;;;6.78;3.50;;;;;;;20.13;42.19;102004.25;16109542;19;131829;-40
2023/05/13 05:59:37;;;;;;;9.52;3.60;;;;;;;20.27;41.99;102005.81;16107054;19;129275;-41
2023/05/13 06:04:59;;;;;;;9.15;3.17;;;;;;;20.41;42.14;101995.38;16109744;19;131639;-41
2023/05/13 06:10:21;;;;;;;9.90;3.22;;;;;;;20.54;41.92;102005.50;16111837;19;130291;-42
2023/05/13 06:15:43;;;;;;;6.45;3.10;;;;;;;20.66;41.52;102010.25;16108006;19;130801;-40
2023/05/13 06:21:05;;;;;;;4.85;2.83;;;;;;;20.75;41.32;102011.63;16109655;19;129241;-41
2023/05/13 06:26:28;;;;;;;8.68;3.10;;;;;;;20.82;41.03;102001.28;16111944;19;130108;-42
2023/05/13 06:31:50;;;;;;;6.55;3.20;;;;;;;20.87;40.91;102012.56;16111903;19;129851;-47
2023/05/13 06:37:12;;;;;;;6.20;2.90;;;;;;;20.90;41.11;102009.31;16106868;19;130515;-41
2023/05/13 06:42:39;;;;;;;7.53;2.70;;;;;;;20.94;41.11;102008.81;16107975;19;130854;-41
2023/05/13 06:48:01;;;;;;;5.57;2.95;;;;;;;20.96;40.63;102018.66;16104612;19;131245;-43
2023/05/13 06:53:22;;;;;;;4.65;2.90;;;;;;;20.99;40.97;102022.88;16107645;19;130073;-41
2023/05/13 06:58:44;;;;;;;4.05;2.58;;;;;;;21.01;40.82;102026.28;16111242;19;130397;-41
2023/05/13 07:04:06;;;;;;;4.95;2.58;;;;;;;21.06;40.86;102031.97;16103822;19;131785;-40
2023/05/13 07:09:28;;;;;;;5.13;2.58;;;;;;;21.08;41.06;102027.03;16101647;19;129889;-44
2023/05/13 07:14:50;;;;;;;3.72;2.50;;;;;;;21.09;40.69;102023.16;16103457;19;132467;-41
2023/05/13 07:20:12;;;;;;;4.97;3.00;;;;;;;21.10;40.79;102019.28;16099422;19;130873;-43
2023/05/13 07:25:34;;;;;;;4.82;3.17;;;;;;;21.11;40.97;102015.44;16097311;19;130473;-41
2023/05/13 07:30:56;;;;;;;2.67;2.30;;;;;;;21.14;40.60;102014.09;16102132;19;130235;-44
2023/05/13 07:36:18;;;;;;;3.60;2.60;;;;;;;21.15;40.61;102016.66;16106820;19;130160;-41
2023/05/13 07:41:39;;;;;;;5.60;2.60;;;;;;;21.15;41.09;102021.38;16101883;19;131149;-42
2023/05/13 07:47:01;;;;;;;4.45;2.65;;;;;;;21.14;41.08;102026.09;16099221;19;133481;-43
2023/05/13 07:52:23;;;;;;;2.63;2.40;;;;;;;21.14;40.80;102019.66;16105789;19;130531;-46
2023/05/13 07:57:45;;;;;;;6.93;2.35;;;;;;;21.14;40.54;102014.97;16119168;19;130618;-43
2023/05/13 08:03:07;;;;;;;4.43;2.60;;;;;;;21.14;40.52;102019.66;16107451;19;130519;-41
2023/05/13 08:08:29;;;;;;;4.57;2.65;;;;;;;21.14;40.73;102014.97;16113253;19;130595;-43
2023/05/13 08:13:51;;;;;;;4.15;2.50;;;;;;;21.15;40.81;102016.66;16118869;19;130150;-41
2023/05/13 08:19:13;;;;;;;5.28;2.90;;;;;;;21.15;40.67;102015.78;16117475;19;131291;-41
2023/05/13 08:24:35;;;;;;;3.80;2.55;;;;;;;21.15;40.50;102016.66;16125145;19;129931;-42
2023/05/13 08:29:57;;;;;;;4.95;2.65;;;;;;;21.16;40.94;102025.84;16126019;19;131777;-42
2023/05/13 08:35:19;;;;;;;3.92;2.63;;;;;;;21.15;40.45;102021.38;16124913;19;130365;-40
2023/05/13 08:40:41;;;;;;;3.78;2.80;;;;;;;21.13;40.70;102024.41;16125387;19;129417;-42
2023/05/13 08:46:07;;;;;;;4.38;2.45;;;;;;;21.14;40.68;102014.97;16114954;19;130354;-45
2023/05/13 08:51:30;;;;;;;3.53;3.13;;;;;;;21.12;40.96;102017.13;16114568;19;130181;-40
2023/05/13 08:56:52;;;;;;;3.70;2.70;;;;;;;21.12;41.00;102017.13;16120622;19;129586;-42
2023/05/13 09:02:14;;;;;;;6.32;3.10;;;;;;;21.11;40.47;102015.44;16117170;19;131666;-40
2023/05/13 09:07:38;;;;;;;6.68;2.88;;;;;;;21.11;40.67;102015.44;16118159;19;130735;-43
2023/05/13 09:13:00;;;;;;;5.47;2.97;;;;;;;21.11;40.61;102014.59;16117211;19;129437;-43
2023/05/13 09:18:29;;;;;;;4.65;2.83;;;;;;;21.11;40.77;102015.44;16114525;19;130650;-41
2023/05/13 09:24:12;;;;;;;5.25;3.00;;;;;;;21.10;40.91;102016.50;16115970;19;130029;-43
2023/05/13 09:29:34;;;;;;;5.30;2.92;;;;;;;21.08;40.84;102013.13;16115782;19;130182;-43
2023/05/13 09:34:56;;;;;;;4.78;3.30;;;;;;;21.03;40.73;101999.91;16112877;19;131355;-42
2023/05/13 09:40:18;;;;;;;3.80;3.22;;;;;;;21.02;40.82;101997.38;16111925;19;130117;-46
2023/05/13 09:45:40;;;;;;;8.27;3.58;;;;;;;20.99;40.78;101989.50;16108530;19;130863;-41
2023/05/13 09:51:03;;;;;;;5.15;3.05;;;;;;;20.98;40.67;101998.94;16111467;19;130728;-41
2023/05/13 09:56:29;;;;;;;3.65;3.10;;;;;;;20.97;40.53;101989.75;16105891;19;131047;-41
2023/05/13 10:01:53;;;;;;;4.13;2.70;;;;;;;20.94;40.77;101992.13;16107747;19;131603;-40
2023/05/13 10:07:16;;;;;;;5.78;2.70;;;;;;;20.95;40.20;101979.91;16107369;19;129504;-44
2023/05/13 10:12:40;;;;;;;6.63;3.40;;;;;;;20.96;40.41;101976.94;16105781;19;130406;-43
2023/05/13 10:18:04;;;;;;;8.20;3.47;;;;;;;21.00;40.00;101975.34;16100778;19;132708;-40
2023/05/13 10:23:28;;;;;;;4.47;2.97;;;;;;;21.03;40.03;101974.03;16102861;19;129970;-41
2023/05/13 10:28:50;;;;;;;4.38;3.13;;;;;;;21.07;39.96;101975.25;16107206;19;130190;-44
2023/05/13 10:34:12;;;;;;;4.07;2.80;;;;;;;21.13;40.14;101965.97;16111957;19;129959;-43
2023/05/13 10:40:24;;;;;;;3.95;2.90;;;;;;;21.19;39.76;101964.16;16109554;19;131080;-45
2023/05/13 10:45:48;;;;;;;6.15;2.75;;;;;;;21.21;39.64;101965.59;16112125;19;129814;-41
2023/05/13 10:51:13;;;;;;;6.38;2.60;;;;;;;21.25;39.56;101962.34;16101981;19;132023;-44
2023/05/13 10:56:35;;;;;;;;;;;;;;;21.21;40.08;101960.03;16103250;19;131234;-42
2023/05/13 11:02:00;;;;;;;3.92;2.70;;;;;;;21.29;39.88;101955.22;16108616;19;129348;-41
2023/05/13 11:07:22;;;;;;;5.00;2.73;;;;;;;21.30;39.68;101956.91;16111236;19;133788;-42
2023/05/13 11:13:18;;;;;;;9.57;3.00;;;;;;;21.31;39.91;101941.91;16107346;19;131176;-42
2023/05/13 11:18:41;;;;;;;3.75;2.45;;;;;;;21.28;39.95;101939.63;16105173;19;129812;-42
2023/05/13 11:24:05;;;;;;;3.83;2.60;;;;;;;21.24;39.58;101930.03;16096578;19;131996;-43
2023/05/13 11:29:37;;;;;;;4.20;2.50;;;;;;;21.19;39.61;101928.81;16121527;19;130929;-41
2023/05/13 11:35:00;;;;;;;4.90;2.85;;;;;;;21.16;39.73;101925.66;16119583;19;130763;-42
2023/05/13 11:40:26;;;;;;;4.35;2.42;;;;;;;21.16;39.85;101922.88;16122107;19;129695;-44
2023/05/13 11:45:49;;;;;;;7.45;2.78;;;;;;;21.13;39.67;101921.44;16121717;19;130792;-42
2023/05/13 11:51:11;;;;;;;5.10;2.42;;;;;;;21.13;39.44;101926.13;16118169;19;131727;-45
2023/05/13 11:56:33;;;;;;;4.45;2.50;;;;;;;21.12;39.85;101914.19;16116360;19;130049;-41
2023/05/13 12:02:01;;;;;;;3.17;2.40;;;;;;;21.10;39.85;101908.00;16119577;19;129548;-42
2023/05/13 12:07:25;;;;;;;5.65;2.70;;;;;;;21.09;39.95;101911.88;16120767;19;129894;-41
2023/05/13 12:12:47;;;;;;;2.50;2.15;;;;;;;21.08;39.54;101914.91;16120564;19;130217;-41
2023/05/13 12:18:09;;;;;;;4.07;2.50;;;;;;;21.09;39.40;101900.75;16119849;19;129605;-42
2023/05/13 12:23:40;;;;;;;4.28;2.30;;;;;;;21.08;39.75;101896.25;16109173;19;131471;-41
2023/05/13 12:29:02;;;;;;;4.07;2.50;;;;;;;21.08;39.45;101893.47;16115680;19;130843;-42
2023/05/13 12:34:33;;;;;;;3.58;2.33;;;;;;;21.09;39.54;101897.13;16118993;19;130336;-41
2023/05/13 12:40:11;;;;;;;3.63;2.42;;;;;;;21.08;38.80;101896.25;16117425;19;129801;-41
2023/05/13 12:45:34;;;;;;;3.10;2.33;;;;;;;21.06;39.04;101893.72;16119214;19;131003;-42
2023/05/13 12:50:55;;;;;;;4.90;2.50;;;;;;;21.04;38.57;101884.75;16118787;19;131863;-42
2023/05/13 12:56:23;;;;;;;2.45;2.20;;;;;;;21.03;38.11;101891.41;16117784;19;130250;-44
2023/05/13 13:01:46;;;;;;;3.35;1.80;;;;;;;21.01;38.67;101887.19;16118373;19;131169;-42
2023/05/13 13:07:11;;;;;;;3.67;2.40;;;;;;;20.98;38.11;101894.09;16115215;19;129787;-40
2023/05/13 13:12:33;;;;;;;3.78;2.33;;;;;;;20.96;38.07;101887.91;16113240;19;130412;-46
2023/05/13 13:17:55;;;;;;;3.95;2.40;;;;;;;20.93;37.72;101877.25;16117497;19;130671;-41
2023/05/13 13:23:18;;;;;;;4.55;2.50;;;;;;;20.90;38.21;101881.38;16114981;19;130321;-44
2023/05/13 13:28:39;;;;;;;3.97;2.50;;;;;;;20.89;37.95;101885.22;16112902;19;129940;-41
2023/05/13 13:34:03;;;;;;;5.70;2.60;;;;;;;20.92;37.79;101885.84;16114524;19;130121;-45
2023/05/13 13:39:25;;;;;;;3.95;2.50;;;;;;;20.92;37.51;101867.22;16117387;19;130523;-42
2023/05/13 13:44:47;;;;;;;4.93;2.97;;;;;;;20.92;37.40;101869.16;16111676;19;130617;-45
2023/05/13 13:50:10;;;;;;;6.47;2.20;;;;;;;20.93;37.37;101876.38;16111849;19;129728;-41
2023/05/13 13:55:32;;;;;;;4.85;2.20;;;;;;;20.94;37.35;101847.47;16107231;19;130225;-41
2023/05/13 14:00:53;;;;;;;2.85;2.53;;;;;;;20.93;37.04;101862.47;16107619;19;131232;-42
2023/05/13 14:06:15;;;;;;;4.20;2.22;;;;;;;20.90;37.31;101859.13;16111379;19;130175;-43
2023/05/13 14:11:37;;;;;;;2.10;1.90;;;;;;;20.87;37.03;101865.16;16108481;19;130960;-43
2023/05/13 14:16:59;;;;;;;3.80;2.38;;;;;;;20.88;37.07;101854.84;16111270;19;129590;-41
2023/05/13 14:22:22;;;;;;;2.58;2.08;;;;;;;20.90;37.18;101852.69;16111871;19;131092;-43
2023/05/13 14:27:44;;;;;;;3.95;2.40;;;;;;;20.90;36.91;101848.00;16110757;19;130975;-41
2023/05/13 14:33:06;;;;;;;4.00;2.40;;;;;;;20.89;36.82;101834.31;16113894;19;130469;-42
2023/05/13 14:38:28;;;;;;;2.33;2.00;;;;;;;20.89;37.10;101831.53;16109582;19;131216;-43
2023/05/13 14:43:50;;;;;;;3.28;2.33;;;;;;;20.89;37.03;101829.59;16105381;19;129557;-41
2023/05/13 14:49:12;;;;;;;4.22;2.20;;;;;;;20.86;36.92;101832.84;16112798;19;129756;-41
2023/05/13 14:54:35;;;;;;;3.55;2.28;;;;;;;20.84;36.67;101832.25;16111855;19;131065;-41
2023/05/13 14:59:57;;;;;;;4.15;2.15;;;;;;;20.81;36.88;101829.94;16108300;19;132020;-43
2023/05/13 15:05:20;;;;;;;5.95;2.42;;;;;;;20.83;36.40;101830.53;16113527;19;130030;-42
2023/05/13 15:10:43;;;;;;;3.22;2.30;;;;;;;20.84;36.53;101823.06;16105279;19;134660;-45
2023/05/13 15:16:06;;;;;;;4.18;1.98;;;;;;;20.84;36.95;101823.91;16103683;19;129495;-44
2023/05/13 15:21:27;;;;;;;4.20;1.85;;;;;;;20.85;36.44;101821.97;16106082;19;131065;-44
2023/05/13 15:26:49;;;;;;;3.63;2.30;;;;;;;20.85;36.16;101811.69;16099571;19;131415;-43
2023/05/13 15:32:11;;;;;;;4.43;2.28;;;;;;;20.88;36.49;101816.78;16106183;19;130154;-45
2023/05/13 15:37:33;;;;;;;5.07;2.00;;;;;;;20.85;36.01;101810.84;16107856;19;129752;-45
2023/05/13 15:42:55;;;;;;;5.53;2.20;;;;;;;20.85;35.73;101783.03;16105500;19;130399;-45
2023/05/13 15:48:17;;;;;;;21.95;3.35;;;;;;;20.86;35.54;101788.34;16106193;19;130451;-46
2023/05/13 15:53:39;;;;;;;36.05;4.97;;;;;;;20.85;35.21;101791.38;16107913;19;131109;-45
2023/05/13 15:59:01;;;;;;;39.97;4.53;;;;;;;20.84;34.80;101787.75;16104388;19;130805;-44
2023/05/13 16:04:23;;;;;;;34.10;4.22;;;;;;;20.84;34.02;101787.75;16102444;19;130895;-46
2023/05/13 16:09:45;;;;;;;35.85;4.88;;;;;;;20.84;34.70;101804.44;16108614;19;131253;-43
2023/05/13 16:15:08;;;;;;;26.92;4.72;;;;;;;20.83;35.29;101797.16;16104413;19;131696;-46
2023/05/13 16:20:30;;;;;;;21.58;3.90;;;;;;;20.81;34.25;101804.06;16118153;19;131461;-43
2023/05/13 16:25:52;;;;;;;21.33;3.88;;;;;;;20.80;34.40;101802.38;16118870;19;130209;-43
2023/05/13 16:31:14;;;;;;;21.65;3.72;;;;;;;20.81;34.39;101799.34;16119372;19;129786;-46
2023/05/13 16:36:36;;;;;;;20.75;3.58;;;;;;;20.80;33.61;101803.22;16121066;19;129953;-42
2023/05/13 16:41:58;;;;;;;10.18;3.65;;;;;;;20.78;33.55;101804.53;16118078;19;131467;-44
2023/05/13 16:47:20;;;;;;;9.85;3.33;;;;;;;20.78;33.70;101801.75;16118543;19;129731;-43
2023/05/13 16:52:42;;;;;;;7.30;3.00;;;;;;;20.79;33.84;101807.09;16114698;19;134878;-42
2023/05/13 16:58:04;;;;;;;8.68;3.00;;;;;;;20.83;34.16;101786.06;16120061;19;129552;-42
2023/05/13 17:03:26;;;;;;;9.27;3.30;;;;;;;20.85;34.14;101792.22;16115808;19;129221;-46
2023/05/13 17:08:48;;;;;;;8.95;3.20;;;;;;;20.88;34.16;101794.53;16117057;19;129926;-43
2023/05/13 17:14:10;;;;;;;6.45;3.05;;;;;;;20.90;33.44;101784.03;16116476;19;131329;-46
2023/05/13 17:19:32;;;;;;;9.20;2.75;;;;;;;20.88;33.58;101780.63;16114486;19;131100;-45
2023/05/13 17:24:54;;;;;;;6.95;3.05;;;;;;;20.86;33.71;101790.31;16109209;19;131432;-44
2023/05/13 17:30:15;;;;;;;7.13;2.90;;;;;;;20.85;33.07;101771.91;16110090;19;130103;-45
2023/05/13 17:35:37;;;;;;;7.18;2.70;;;;;;;20.90;33.07;101775.66;16110449;19;131305;-46
2023/05/13 17:40:59;;;;;;;4.90;2.60;;;;;;;21.00;32.97;101768.66;16109954;19;129791;-44
2023/05/13 17:46:21;;;;;;;7.13;2.60;;;;;;;21.10;33.14;101768.06;16110153;19;130731;-46
2023/05/13 17:51:43;;;;;;;9.60;2.97;;;;;;;21.15;33.16;101782.94;16113805;19;129867;-43
2023/05/13 17:57:05;;;;;;;4.85;2.58;;;;;;;21.20;33.14;101780.25;16115900;19;130116;-44
2023/05/13 18:02:27;;;;;;;6.90;2.85;;;;;;;21.22;32.98;101782.81;16108738;19;132063;-45
2023/05/13 18:07:49;;;;;;;8.55;2.72;;;;;;;21.21;33.44;101783.88;16113105;19;129278;-42
2023/05/13 18:13:11;;;;;;;7.57;3.13;;;;;;;21.20;33.69;101779.41;16108131;19;130723;-43
2023/05/13 18:18:33;;;;;;;4.20;2.50;;;;;;;21.16;34.15;101781.84;16108286;19;130587;-44
2023/05/13 18:23:55;;;;;;;7.60;2.40;;;;;;;21.13;34.17;101793.44;16109158;19;129686;-43
2023/05/13 18:29:17;;;;;;;6.60;2.60;;;;;;;21.08;34.96;101798.88;16109277;19;129313;-44
2023/05/13 18:34:38;;;;;;;6.88;2.88;;;;;;;21.03;34.89;101801.56;16108699;19;131721;-43
2023/05/13 18:40:00;;;;;;;8.50;3.20;;;;;;;21.00;35.33;101804.81;16099453;19;129567;-45
2023/05/13 18:45:22;;;;;;;6.90;3.10;;;;;;;20.96;35.48;101817.50;16109671;19;130712;-44
2023/05/13 18:50:45;;;;;;;4.32;2.60;;;;;;;20.93;36.08;101817.97;16112878;19;129305;-45
2023/05/13 18:56:07;;;;;;;6.18;2.80;;;;;;;20.88;36.06;101827.91;16107713;19;130503;-46
2023/05/13 19:01:28;;;;;;;8.00;2.92;;;;;;;20.85;36.56;101839.50;16103743;19;129559;-45
2023/05/13 19:06:53;;;;;;;13.10;2.97;;;;;;;20.84;36.64;101853.66;16108389;19;130094;-45
2023/05/13 19:12:15;;;;;;;6.57;2.87;;;;;;;20.82;36.47;101876.13;16099054;19;131039;-42
2023/05/13 19:17:37;;;;;;;12.48;3.15;;;;;;;20.82;36.78;101883.63;16106806;19;131026;-45
2023/05/13 19:23:01;;;;;;;8.98;3.13;;;;;;;20.82;37.13;101906.72;16100999;19;130281;-47
2023/05/13 19:28:23;;;;;;;8.57;3.05;;;;;;;20.81;36.81;101909.75;16105578;19;129918;-48
2023/05/13 19:33:44;;;;;;;8.25;3.20;;;;;;;20.80;37.04;101911.66;16108970;19;130526;-43
2023/05/13 19:39:07;;;;;;;7.93;2.80;;;;;;;20.85;37.33;101922.94;16103491;19;131216;-45
2023/05/13 19:44:30;;;;;;;35.40;3.88;;;;;;;20.85;37.15;101922.09;16106144;19;131233;-47
2023/05/13 19:49:52;;;;;;;35.90;4.43;;;;;;;20.90;37.86;101920.31;16120104;19;131707;-47
2023/05/13 19:55:14;;;;;;;36.72;4.38;;;;;;;20.99;38.63;101931.09;16118851;19;130480;-48
2023/05/13 20:00:36;;;;;;;22.58;4.78;;;;;;;21.07;38.74;101936.28;16114925;19;131237;-42
2023/05/13 20:05:58;;;;;;;33.05;4.25;;;;;;;21.15;38.57;101929.53;16122332;19;131164;-41
2023/05/13 20:11:20;;;;;;;34.38;5.18;;;;;;;21.21;38.76;101928.59;16118327;19;130217;-41
2023/05/13 20:16:42;;;;;;;30.08;4.03;;;;;;;21.25;39.36;101931.75;16122268;19;131498;-42
2023/05/13 20:22:04;;;;;;;30.13;4.95;;;;;;;21.29;39.82;101938.53;16121406;19;129681;-43
2023/05/13 20:27:26;;;;;;;29.75;4.95;;;;;;;21.29;39.62;101935.75;16120455;19;133683;-41
2023/05/13 20:32:48;;;;;;;28.52;4.55;;;;;;;21.29;40.10;101928.22;16121318;19;129543;-40
2023/05/13 20:38:10;;;;;;;35.33;5.55;;;;;;;21.30;40.46;101924.38;16115244;19;129470;-41
2023/05/13 20:43:34;;;;;;;40.30;4.65;;;;;;;21.31;40.74;101934.41;16118174;19;129636;-41
2023/05/13 20:48:56;;;;;;;52.17;5.93;;;;;;;21.27;41.04;101927.63;16116966;19;129281;-41
2023/05/13 20:54:17;;;;;;;47.15;5.82;;;;;;;21.27;40.84;101924.00;16118395;19;129788;-44
2023/05/13 20:59:39;;;;;;;33.53;4.20;;;;;;;21.26;41.44;101920.34;16120885;19;131214;-42
2023/05/13 21:05:01;;;;;;;46.67;4.75;;;;;;;21.25;41.51;101923.38;16115992;19;131452;-45
2023/05/13 21:10:23;;;;;;;40.42;5.28;;;;;;;21.25;41.37;101920.59;16116888;19;129443;-43
2023/05/13 21:15:45;;;;;;;46.28;6.28;;;;;;;21.24;42.22;101910.56;16112228;19;129600;-44
2023/05/13 21:21:11;;;;;;;36.13;4.63;;;;;;;21.22;41.95;101916.38;16114343;19;131370;-41
2023/05/13 21:26:35;;;;;;;29.80;5.20;;;;;;;21.18;41.62;101918.78;16119994;19;130401;-41
2023/05/13 21:31:57;;;;;;;38.17;5.20;;;;;;;21.16;41.57;101912.63;16115746;19;130586;-40
2023/05/13 21:37:19;;;;;;;63.13;7.63;;;;;;;21.16;42.10;101918.19;16113680;19;130266;-44
2023/05/13 21:42:41;;;;;;;41.45;4.88;;;;;;;21.17;42.04;101924.59;16113486;19;131165;-41
2023/05/13 21:48:03;;;;;;;51.58;5.90;;;;;;;21.16;42.12;101920.97;16116372;19;131090;-41
2023/05/13 21:53:25;;;;;;;33.80;5.45;;;;;;;21.16;41.82;101907.06;16116577;19;130160;-41
2023/05/13 21:58:48;;;;;;;40.17;4.97;;;;;;;21.15;42.18;101916.50;16117911;19;134127;-41
2023/05/13 22:04:09;;;;;;;32.78;4.68;;;;;;;21.13;41.88;101912.22;16112440;19;130049;-41
2023/05/13 22:09:31;;;;;;;24.08;4.93;;;;;;;21.11;41.85;101909.69;16113270;19;129491;-40
2023/05/13 22:14:53;;;;;;;23.77;5.78;;;;;;;21.10;41.78;101910.78;16111780;19;131838;-43
2023/05/13 22:20:15;;;;;;;43.03;7.00;;;;;;;21.08;42.03;101910.16;16109859;19;132394;-41
2023/05/13 22:25:37;;;;;;;30.95;5.70;;;;;;;21.06;41.79;101904.00;16113466;19;130221;-44
2023/05/13 22:30:59;;;;;;;24.00;5.13;;;;;;;21.02;41.92;101903.63;16108942;19;130400;-43
2023/05/13 22:36:20;;;;;;;30.35;5.82;;;;;;;20.96;42.05;101899.03;16097436;19;129554;-45
2023/05/13 22:41:43;;;;;;;23.45;5.10;;;;;;;20.93;41.72;101893.06;16108545;19;130063;-45
2023/05/13 22:47:05;;;;;;;23.02;4.65;;;;;;;20.88;41.75;101891.00;16108610;19;129934;-44
2023/05/13 22:52:27;;;;;;;14.90;4.60;;;;;;;20.84;41.92;101893.44;16102731;19;133653;-43
2023/05/13 22:57:49;;;;;;;19.35;4.85;;;;;;;20.84;41.46;101895.38;16112538;19;130221;-41
2023/05/13 23:03:11;;;;;;;17.02;4.38;;;;;;;20.79;41.26;101890.53;16100368;19;131705;-39
2023/05/13 23:08:33;;;;;;;15.80;4.10;;;;;;;20.80;41.42;101885.81;16110058;19;130278;-39
2023/05/13 23:13:55;;;;;;;16.42;4.05;;;;;;;20.82;42.03;101890.03;16102974;19;129512;-42
2023/05/13 23:19:17;;;;;;;15.63;4.13;;;;;;;20.84;41.79;101885.09;16105183;19;130713;-39
2023/05/13 23:24:38;;;;;;;17.17;4.20;;;;;;;20.82;41.48;101884.47;16119442;19;129521;-40
2023/05/13 23:30:00;;;;;;;12.98;3.90;;;;;;;20.80;41.33;101881.06;16117247;19;129403;-40
2023/05/13 23:35:22;;;;;;;11.25;3.97;;;;;;;20.78;41.24;101872.16;16125535;19;131791;-39
2023/05/13 23:40:44;;;;;;;15.07;4.90;;;;;;;20.76;41.50;101868.75;16121756;19;129247;-39
2023/05/13 23:46:06;;;;;;;14.07;4.80;;;;;;;20.74;41.58;101865.31;16120914;19;129581;-39
2023/05/13 23:51:28;;;;;;;12.45;4.60;;;;;;;20.72;41.38;101862.78;16114239;19;132019;-40
2023/05/13 23:56:49;;;;;;;7.53;3.85;;;;;;;20.71;41.40;101871.34;16123848;19;130503;-39
